Time;durP1;ratioP1;P1;durP2;ratioP2;P2;SDS_P1;SDS_P2;PMS_P1;PMS_P2;Temp;Humidity;BMP_temperature;BMP_pressure;BME280_temperature;BME280_humidity;BME280_pressure;Samples;Min_cycle;Max_cycle;Signal;HPM_P1;HPM_P2
2021/05/20 00:00:27;;;;;;;4.80;2.38;;;;;;;15.81;72.26;98431.19;3617539;39;20043;-64
2021/05/20 00:02:54;;;;;;;6.13;2.50;;;;;;;15.81;72.65;98439.09;3608288;39;20405;-64
2021/05/20 00:05:21;;;;;;;5.38;2.13;;;;;;;15.83;72.45;98429.16;3617503;39;20043;-65
2021/05/20 00:07:49;;;;;;;3.60;2.45;;;;;;;15.82;72.64;98444.16;3626756;39;20070;-65
2021/05/20 00:10:17;;;;;;;3.88;2.00;;;;;;;15.82;72.61;98449.44;3626913;39;20360;-71
2021/05/20 00:12:45;;;;;;;4.03;2.53;;;;;;;15.84;72.56;98452.69;3626948;39;20054;-68
2021/05/20 00:15:14;;;;;;;6.00;2.40;;;;;;;15.80;73.24;98466.44;3626466;39;20051;-67
2021/05/20 00:17:44;;;;;;;7.25;2.10;;;;;;;15.82;72.50;98467.91;3626629;39;20404;-71
2021/05/20 00:20:13;;;;;;;5.50;2.58;;;;;;;15.75;74.28;98472.28;3626388;39;20503;-69
2021/05/20 00:22:41;;;;;;;5.78;2.38;;;;;;;15.57;76.75;98480.59;3626325;39;20513;-67
2021/05/20 00:25:09;;;;;;;6.70;3.00;;;;;;;15.42;77.49;98478.97;3617473;39;20413;-70
2021/05/20 00:27:37;;;;;;;5.30;2.70;;;;;;;15.11;81.36;98493.19;3617388;39;20066;-66
2021/05/20 00:30:10;;;;;;;5.35;2.72;;;;;;;14.98;82.50;98493.81;3617394;39;20049;-71
2021/05/20 00:32:38;;;;;;;3.25;2.22;;;;;;;14.90;82.29;98500.97;3617642;39;20586;-69
2021/05/20 00:35:06;;;;;;;5.95;2.88;;;;;;;14.74;84.45;98501.97;3617389;39;20143;-65
2021/05/20 00:37:34;;;;;;;7.45;2.90;;;;;;;14.60;84.56;98490.44;3619138;39;20363;-68
2021/05/20 00:40:03;;;;;;;4.32;2.45;;;;;;;14.50;86.35;98497.78;3625931;39;20109;-66
2021/05/20 00:42:31;;;;;;;5.72;2.92;;;;;;;14.49;85.64;98496.97;3626513;39;20497;-64
2021/05/20 00:45:04;;;;;;;5.05;2.83;;;;;;;14.52;84.57;98504.47;3626939;39;20054;-66
2021/05/20 00:47:34;;;;;;;4.50;3.08;;;;;;;14.43;87.07;98502.91;3626357;39;20050;-65
2021/05/20 00:50:04;;;;;;;4.13;3.10;;;;;;;14.37;87.80;98513.31;3626541;39;20051;-65
2021/05/20 00:52:31;;;;;;;5.85;3.22;;;;;;;14.32;87.11;98504.13;3626700;39;20045;-68
2021/05/20 00:55:02;;;;;;;6.55;2.80;;;;;;;14.30;87.20;98513.22;3618882;39;20055;-63
2021/05/20 00:57:30;;;;;;;10.88;3.35;;;;;;;14.26;87.37;98510.09;3617187;39;20311;-65
2021/05/20 01:00:09;;;;;;;6.93;3.42;;;;;;;14.22;88.05;98516.72;3617196;39;20047;-66
2021/05/20 01:02:39;;;;;;;4.90;3.10;;;;;;;14.19;87.63;98524.13;3624535;39;20042;-67
2021/05/20 01:05:09;;;;;;;6.60;3.33;;;;;;;14.17;87.62;98529.56;3626383;39;20043;-67
2021/05/20 01:07:37;;;;;;;6.95;3.83;;;;;;;14.16;87.77;98527.13;3626124;39;20055;-69
2021/05/20 01:10:06;;;;;;;5.07;3.40;;;;;;;14.19;87.76;98532.00;3617090;39;20058;-65
2021/05/20 01:12:33;;;;;;;9.13;3.38;;;;;;;14.18;87.41;98528.56;3617131;39;20055;-67
2021/05/20 01:15:01;;;;;;;4.50;3.45;;;;;;;14.19;87.90;98529.38;3617164;39;20047;-67
2021/05/20 01:17:28;;;;;;;6.30;3.47;;;;;;;14.17;87.97;98531.38;3617124;39;20326;-66
2021/05/20 01:19:56;;;;;;;6.05;3.63;;;;;;;14.22;87.88;98535.09;3617085;39;20062;-66
2021/05/20 01:22:24;;;;;;;6.95;3.75;;;;;;;14.19;88.61;98535.44;3617412;39;20091;-70
2021/05/20 01:24:52;;;;;;;6.40;4.28;;;;;;;14.22;87.38;98543.00;3616849;39;20063;-62
2021/05/20 01:27:19;;;;;;;4.75;3.38;;;;;;;14.21;88.54;98541.38;3626204;39;20043;-66
2021/05/20 01:29:46;;;;;;;17.60;10.98;;;;;;;14.23;87.01;98542.00;3625941;39;20051;-61
2021/05/20 01:32:14;;;;;;;13.45;7.07;;;;;;;14.19;88.43;98551.22;3626052;39;20051;-66
2021/05/20 01:34:41;;;;;;;27.10;16.63;;;;;;;14.17;88.94;98550.59;3626052;39;20063;-62
2021/05/20 01:37:09;;;;;;;7.35;4.35;;;;;;;14.12;89.45;98552.94;3616759;39;20125;-65
2021/05/20 01:39:37;;;;;;;6.40;4.18;;;;;;;14.11;89.13;98548.69;3626131;39;20131;-61
2021/05/20 01:42:05;;;;;;;7.65;4.15;;;;;;;14.09;89.14;98550.66;3626158;39;20054;-61
2021/05/20 01:44:32;;;;;;;6.32;4.07;;;;;;;14.12;88.13;98550.31;3625475;39;20058;-61
2021/05/20 01:46:59;;;;;;;5.75;4.13;;;;;;;14.09;89.15;98561.97;3617909;39;20053;-63
2021/05/20 01:49:27;;;;;;;9.38;4.50;;;;;;;14.06;88.54;98554.47;3627555;39;20065;-65
2021/05/20 01:51:55;;;;;;;6.57;4.20;;;;;;;14.01;88.84;98556.78;3627423;39;20042;-63
2021/05/20 01:54:22;;;;;;;5.85;4.20;;;;;;;14.01;87.54;98562.06;3627488;39;20321;-63
2021/05/20 01:56:49;;;;;;;6.85;4.70;;;;;;;13.98;88.58;98565.00;3628218;39;20109;-62
2021/05/20 01:59:16;;;;;;;8.00;4.53;;;;;;;13.98;87.71;98574.72;3627543;39;20068;-70
2021/05/20 02:01:44;;;;;;;23.85;12.90;;;;;;;13.96;87.43;98580.16;3627742;39;20047;-59
2021/05/20 02:04:11;;;;;;;6.90;3.85;;;;;;;13.95;87.51;98580.31;3618112;39;20059;-60
2021/05/20 02:06:38;;;;;;;23.95;16.80;;;;;;;13.97;86.73;98580.97;3618422;39;20039;-63
2021/05/20 02:09:06;;;;;;;9.65;3.80;;;;;;;13.88;86.90;98584.63;3618678;39;20051;-68
2021/05/20 02:11:34;;;;;;;8.07;3.83;;;;;;;13.87;87.05;98601.41;3618502;39;20059;-64
2021/05/20 02:14:01;;;;;;;5.93;3.88;;;;;;;13.81;87.00;98598.47;3625499;39;20316;-62
2021/05/20 02:16:29;;;;;;;5.90;3.50;;;;;;;13.72;87.30;98596.88;3627926;39;20426;-66
2021/05/20 02:18:56;;;;;;;6.00;3.25;;;;;;;13.64;87.30;98619.72;3627798;39;20043;-70
2021/05/20 02:21:24;;;;;;;5.82;3.20;;;;;;;13.61;87.22;98620.88;3627224;39;20161;-64
2021/05/20 02:23:51;;;;;;;5.25;3.10;;;;;;;13.58;87.08;98624.66;3627469;39;20127;-61
2021/05/20 02:26:18;;;;;;;4.70;2.45;;;;;;;13.60;86.37;98634.19;3627560;39;20049;-66
2021/05/20 02:28:46;;;;;;;5.13;2.75;;;;;;;13.56;86.73;98625.81;3627506;39;20042;-65
2021/05/20 02:31:13;;;;;;;4.78;3.03;;;;;;;13.56;86.25;98637.13;3627432;39;20047;-68
2021/05/20 02:33:40;;;;;;;5.78;3.20;;;;;;;13.58;86.02;98647.50;3627676;39;20091;-64
2021/05/20 02:36:07;;;;;;;3.47;2.70;;;;;;;13.53;86.17;98645.38;3626995;39;20047;-62
2021/05/20 02:38:35;;;;;;;3.50;2.65;;;;;;;13.56;85.55;98649.44;3621999;39;20083;-62
2021/05/20 02:41:02;;;;;;;5.15;2.40;;;;;;;13.48;85.32;98660.81;3627113;39;20074;-66
2021/05/20 02:43:32;;;;;;;133.65;64.78;;;;;;;13.46;85.13;98665.41;3624211;39;20047;-61
2021/05/20 02:46:03;;;;;;;22.38;9.30;;;;;;;13.42;85.49;98671.16;3618073;39;20058;-63
2021/05/20 02:48:31;;;;;;;6.20;2.65;;;;;;;13.33;84.87;98676.41;3618316;39;20500;-59
2021/05/20 02:50:58;;;;;;;4.47;2.28;;;;;;;13.27;84.69;98679.72;3618344;39;20075;-60
2021/05/20 02:53:25;;;;;;;3.78;2.60;;;;;;;13.27;84.91;98684.97;3618079;39;20051;-59
2021/05/20 02:55:53;;;;;;;3.88;2.28;;;;;;;13.26;84.01;98687.75;3618158;39;20047;-59
2021/05/20 02:58:21;;;;;;;3.22;2.10;;;;;;;13.23;84.63;98690.72;3618172;39;20124;-61
2021/05/20 03:00:48;;;;;;;3.40;2.10;;;;;;;13.15;84.83;98696.78;3618254;39;20074;-59
2021/05/20 03:03:16;;;;;;;4.45;2.40;;;;;;;13.19;84.71;98698.06;3618252;39;20055;-58
2021/05/20 03:05:44;;;;;;;5.22;2.40;;;;;;;13.18;84.01;98700.84;3618406;39;20083;-59
2021/05/20 03:08:12;;;;;;;8.82;2.10;;;;;;;13.14;84.30;98700.34;3618156;39;20381;-60
2021/05/20 03:10:39;;;;;;;3.55;2.13;;;;;;;13.14;83.66;98707.41;3618088;39;20071;-59
2021/05/20 03:13:07;;;;;;;5.32;3.00;;;;;;;13.14;83.96;98710.03;3618152;39;20069;-59
2021/05/20 03:15:34;;;;;;;2.30;1.77;;;;;;;13.07;84.68;98712.50;3618078;39;20058;-59
2021/05/20 03:18:02;;;;;;;3.97;2.30;;;;;;;13.07;85.09;98710.72;3618514;39;20071;-59
2021/05/20 03:20:30;;;;;;;6.88;2.67;;;;;;;13.00;84.69;98724.63;3627232;39;20058;-59
2021/05/20 03:22:57;;;;;;;2.88;1.98;;;;;;;13.01;84.70;98729.75;3627056;39;20049;-59
2021/05/20 03:25:25;;;;;;;128.90;51.05;;;;;;;12.95;84.39;98734.81;3626097;39;20050;-56
2021/05/20 03:27:52;;;;;;;15.77;7.82;;;;;;;13.01;84.10;98731.56;3618125;39;20117;-58
2021/05/20 03:30:20;;;;;;;4.75;2.00;;;;;;;12.96;83.65;98742.53;3618150;39;20062;-61
2021/05/20 03:32:47;;;;;;;3.70;2.30;;;;;;;12.89;84.86;98745.97;3618014;39;20420;-60
2021/05/20 03:35:15;;;;;;;3.53;2.38;;;;;;;12.85;83.80;98745.44;3626953;39;20069;-60
2021/05/20 03:37:42;;;;;;;4.13;2.28;;;;;;;12.82;84.52;98749.22;3625149;39;20429;-62
2021/05/20 03:40:10;;;;;;;3.72;2.00;;;;;;;12.78;84.40;98755.78;3618010;39;20116;-62
2021/05/20 03:42:37;;;;;;;3.53;2.25;;;;;;;12.71;84.43;98757.41;3617971;39;20047;-62
2021/05/20 03:45:06;;;;;;;5.65;2.33;;;;;;;12.75;83.67;98757.91;3617990;39;20441;-62
2021/05/20 03:47:34;;;;;;;2.67;1.73;;;;;;;12.74;83.77;98757.09;3617834;39;20518;-62
2021/05/20 03:50:03;;;;;;;3.20;2.05;;;;;;;12.73;84.23;98759.88;3618028;39;20127;-63
2021/05/20 03:52:30;;;;;;;3.85;2.47;;;;;;;12.64;84.43;98774.78;3615102;39;20059;-61
2021/05/20 03:54:57;;;;;;;4.13;2.50;;;;;;;12.57;84.25;98766.69;3616685;39;20051;-62
2021/05/20 03:57:25;;;;;;;5.30;2.22;;;;;;;12.57;84.03;98765.88;3616817;39;20059;-62
2021/05/20 03:59:53;;;;;;;4.03;2.13;;;;;;;12.61;84.51;98761.97;3616325;39;20417;-62
2021/05/20 04:02:21;;;;;;;19.15;14.07;;;;;;;12.63;84.44;98770.50;3616775;39;20040;-61
2021/05/20 04:04:48;;;;;;;20.08;8.90;;;;;;;12.60;83.68;98762.94;3616759;39;20103;-58
2021/05/20 04:07:15;;;;;;;4.28;2.60;;;;;;;12.55;85.40;98768.69;3616764;39;20131;-62
2021/05/20 04:09:43;;;;;;;3.05;1.95;;;;;;;12.49;84.97;98779.81;3615611;39;20043;-62
2021/05/20 04:12:10;;;;;;;4.30;2.22;;;;;;;12.36;85.16;98776.81;3607573;39;20132;-60
2021/05/20 04:14:38;;;;;;;2.72;2.10;;;;;;;12.24;84.81;98775.44;3608166;39;20307;-59
2021/05/20 04:17:06;;;;;;;4.30;2.17;;;;;;;12.24;84.26;98784.13;3607598;39;20413;-60
2021/05/20 04:19:33;;;;;;;2.47;1.52;;;;;;;12.19;84.87;98786.38;3607350;39;20047;-58
2021/05/20 04:22:01;;;;;;;3.17;1.90;;;;;;;12.16;84.43;98794.56;3607339;39;20055;-61
2021/05/20 04:24:28;;;;;;;2.58;1.67;;;;;;;12.20;84.93;98793.28;3607549;39;20303;-58
2021/05/20 04:26:55;;;;;;;2.90;1.92;;;;;;;12.16;84.56;98799.00;3607704;39;20387;-58
2021/05/20 04:29:23;;;;;;;3.13;1.83;;;;;;;12.16;84.62;98802.44;3615055;39;20323;-59
2021/05/20 04:31:50;;;;;;;3.22;1.90;;;;;;;12.18;83.10;98805.72;3616268;39;20051;-59
2021/05/20 04:34:18;;;;;;;2.65;1.70;;;;;;;12.10;84.35;98816.16;3616447;39;20063;-61
2021/05/20 04:36:45;;;;;;;3.55;2.13;;;;;;;12.05;84.56;98818.41;3616397;39;20051;-60
2021/05/20 04:39:12;;;;;;;2.83;2.10;;;;;;;12.03;84.11;98821.19;3608586;39;20047;-62
2021/05/20 04:41:40;;;;;;;3.10;2.22;;;;;;;12.10;84.14;98828.44;3607459;39;20044;-61
2021/05/20 04:44:08;;;;;;;4.68;2.70;;;;;;;12.06;84.58;98822.69;3607734;39;20055;-61
2021/05/20 04:46:35;;;;;;;6.70;3.30;;;;;;;12.10;83.84;98828.44;3607233;39;20306;-58
2021/05/20 04:49:11;;;;;;;3.22;2.13;;;;;;;12.02;84.26;98835.28;3607418;39;20113;-60
2021/05/20 04:51:42;;;;;;;3.15;1.65;;;;;;;11.93;83.50;98849.31;3607186;39;20058;-59
2021/05/20 04:54:10;;;;;;;7.28;1.80;;;;;;;11.93;84.01;98845.88;3625160;39;20050;-60
2021/05/20 04:56:38;;;;;;;2.65;1.45;;;;;;;11.93;83.27;98828.34;3617468;39;20338;-59
2021/05/20 04:59:05;;;;;;;5.00;1.77;;;;;;;11.93;83.98;98846.69;3617442;39;20040;-59
2021/05/20 05:01:33;;;;;;;3.22;1.75;;;;;;;11.92;83.86;98833.75;3617006;39;20054;-63
2021/05/20 05:04:00;;;;;;;2.97;1.77;;;;;;;11.94;83.31;98832.59;3617399;39;20077;-59
2021/05/20 05:06:28;;;;;;;5.00;1.80;;;;;;;12.01;82.98;98845.91;3617311;39;20063;-63
2021/05/20 05:08:55;;;;;;;2.90;1.30;;;;;;;12.13;83.25;98841.25;3617379;39;20082;-61
2021/05/20 05:11:23;;;;;;;4.68;1.40;;;;;;;12.07;82.90;98852.34;3617145;39;20308;-61
2021/05/20 05:13:50;;;;;;;3.10;1.52;;;;;;;12.06;81.74;98851.53;3617294;39;20042;-61
2021/05/20 05:16:18;;;;;;;4.88;1.70;;;;;;;12.03;82.28;98854.44;3617261;39;20066;-61
2021/05/20 05:18:45;;;;;;;2.95;1.80;;;;;;;12.09;82.17;98860.88;3617526;39;20108;-61
2021/05/20 05:21:12;;;;;;;2.35;1.60;;;;;;;12.08;81.74;98852.19;3618628;39;20047;-61
2021/05/20 05:23:40;;;;;;;5.72;1.85;;;;;;;12.10;82.10;98862.50;3618848;39;20453;-61
2021/05/20 05:26:07;;;;;;;2.03;1.40;;;;;;;12.13;81.23;98855.16;3619112;39;20307;-61
2021/05/20 05:28:36;;;;;;;3.15;1.25;;;;;;;12.15;81.24;98868.91;3618723;39;20059;-63
2021/05/20 05:31:03;;;;;;;3.53;1.60;;;;;;;12.18;81.16;98870.41;3627710;39;20054;-59
2021/05/20 05:33:31;;;;;;;3.70;1.40;;;;;;;12.23;81.80;98882.09;3627842;39;20085;-59
2021/05/20 05:35:58;;;;;;;1.90;1.50;;;;;;;12.16;81.41;98877.63;3627827;39;20057;-59
2021/05/20 05:38:25;;;;;;;2.65;1.67;;;;;;;12.18;81.45;98892.22;3622672;39;20054;-60
2021/05/20 05:40:53;;;;;;;2.33;1.40;;;;;;;12.21;81.28;98888.47;3618652;39;20043;-58
2021/05/20 05:43:20;;;;;;;2.10;1.60;;;;;;;12.26;81.50;98888.81;3618679;39;20082;-59
2021/05/20 05:45:47;;;;;;;3.63;1.50;;;;;;;12.21;80.63;98897.16;3618588;39;20069;-59
2021/05/20 05:48:15;;;;;;;2.22;1.60;;;;;;;12.11;80.55;98888.56;3618562;39;20062;-60
2021/05/20 05:50:44;;;;;;;2.38;1.55;;;;;;;12.09;80.58;98892.31;3609301;39;20058;-59
2021/05/20 05:53:27;;;;;;;4.05;1.30;;;;;;;12.14;80.53;98898.72;3618636;39;20097;-60
2021/05/20 05:55:56;;;;;;;4.10;1.75;;;;;;;12.16;80.55;98906.47;3618775;39;20047;-60
2021/05/20 05:58:24;;;;;;;2.55;1.52;;;;;;;12.14;81.10;98909.22;3618451;39;20120;-60
2021/05/20 06:00:52;;;;;;;2.40;2.00;;;;;;;11.99;81.10;98913.38;3618629;39;20136;-58
2021/05/20 06:03:19;;;;;;;5.68;1.88;;;;;;;12.04;81.35;98909.31;3627388;39;20146;-58
2021/05/20 06:05:48;;;;;;;5.05;1.30;;;;;;;12.05;81.05;98908.34;3627421;39;20046;-58
2021/05/20 06:08:16;;;;;;;2.30;1.60;;;;;;;12.04;80.03;98914.56;3627617;39;20621;-59
2021/05/20 06:10:44;;;;;;;3.65;1.75;;;;;;;12.10;80.53;98917.53;3627365;39;20042;-59
2021/05/20 06:13:12;;;;;;;4.82;1.65;;;;;;;12.12;80.29;98923.47;3627837;39;20079;-59
2021/05/20 06:15:40;;;;;;;2.80;1.50;;;;;;;12.06;80.66;98911.81;3627399;39;20115;-58
2021/05/20 06:18:08;;;;;;;2.60;1.52;;;;;;;12.08;80.45;98924.75;3627520;39;20150;-60
2021/05/20 06:20:35;;;;;;;4.65;2.17;;;;;;;12.11;81.19;98933.13;3618529;39;20047;-59
2021/05/20 06:23:04;;;;;;;2.17;1.33;;;;;;;12.09;80.13;98931.63;3608904;39;20497;-61
2021/05/20 06:25:31;;;;;;;4.45;1.77;;;;;;;12.14;80.17;98940.66;3618355;39;20436;-62
2021/05/20 06:27:58;;;;;;;2.42;1.48;;;;;;;12.11;79.61;98938.38;3609378;39;20374;-61
2021/05/20 06:30:26;;;;;;;2.80;1.65;;;;;;;12.07;79.47;98957.16;3611125;39;20043;-59
2021/05/20 06:32:53;;;;;;;6.45;1.52;;;;;;;12.13;79.49;98932.97;3617795;39;20063;-59
2021/05/20 06:35:20;;;;;;;2.40;1.25;;;;;;;12.17;78.60;98937.75;3618438;39;20065;-58
2021/05/20 06:37:50;;;;;;;3.30;1.60;;;;;;;12.34;79.04;98946.53;3620592;39;20039;-59
2021/05/20 06:40:17;;;;;;;2.00;1.20;;;;;;;12.41;78.21;98947.56;3627910;39;20094;-59
2021/05/20 06:42:49;;;;;;;3.88;1.30;;;;;;;12.53;78.05;98948.13;3627539;39;20131;-61
2021/05/20 06:45:16;;;;;;;2.38;1.00;;;;;;;12.71;77.87;98953.31;3618455;39;20348;-59
2021/05/20 06:47:44;;;;;;;1.50;1.10;;;;;;;12.83;77.29;98957.34;3618206;39;20046;-59
2021/05/20 06:50:12;;;;;;;2.67;1.45;;;;;;;12.99;78.41;98956.56;3618267;39;20081;-61
2021/05/20 06:52:40;;;;;;;3.83;1.20;;;;;;;13.16;77.50;98952.22;3608685;39;20031;-59
2021/05/20 06:55:07;;;;;;;1.38;1.05;;;;;;;13.19;75.72;98944.81;3618076;39;20113;-59
2021/05/20 07:00:20;;;;;;;2.35;1.20;;;;;;;13.18;74.78;98950.25;3618004;39;20328;-59
2021/05/20 07:02:48;;;;;;;2.08;1.08;;;;;;;13.28;75.02;98957.03;3618557;39;20373;-59
2021/05/20 07:05:15;;;;;;;1.88;0.90;;;;;;;13.49;75.09;98951.38;3618444;39;20047;-59
2021/05/20 07:07:43;;;;;;;2.22;1.13;;;;;;;13.53;75.84;98957.09;3618147;39;20436;-59
2021/05/20 07:10:12;;;;;;;2.78;1.10;;;;;;;13.64;74.58;98956.00;3627006;39;20051;-71
2021/05/20 07:12:39;;;;;;;2.63;1.20;;;;;;;13.54;74.29;98953.50;3627147;39;20051;-59
2021/05/20 07:15:08;;;;;;;1.63;1.08;;;;;;;13.65;75.53;98970.75;3627105;39;20047;-59
2021/05/20 07:17:35;;;;;;;2.80;1.20;;;;;;;13.54;74.08;98964.00;3626897;39;20093;-58
2021/05/20 07:20:08;;;;;;;1.88;0.98;;;;;;;13.43;73.90;98975.63;3627308;39;20053;-59
2021/05/20 07:22:35;;;;;;;3.30;1.30;;;;;;;13.45;74.85;98988.63;3626929;39;20043;-59
2021/05/20 07:25:05;;;;;;;2.08;1.40;;;;;;;13.44;73.95;98989.59;3626695;39;20057;-59
2021/05/20 07:27:32;;;;;;;2.20;1.40;;;;;;;13.04;74.24;99004.97;3627268;39;20057;-59
2021/05/20 07:30:00;;;;;;;3.00;1.23;;;;;;;12.99;75.54;99003.81;3627177;39;20049;-59
2021/05/20 07:32:28;;;;;;;2.22;1.40;;;;;;;13.01;75.67;99004.50;3627405;39;20057;-59
2021/05/20 07:35:00;;;;;;;2.58;1.52;;;;;;;13.03;75.88;99008.59;3617887;39;20057;-60
2021/05/20 07:37:28;;;;;;;2.55;1.40;;;;;;;13.00;75.94;99006.28;3619529;39;20050;-60
2021/05/20 07:39:55;;;;;;;3.22;1.42;;;;;;;12.97;76.21;99011.03;3626782;39;20054;-60
2021/05/20 07:42:22;;;;;;;4.30;1.50;;;;;;;12.92;76.17;99010.69;3626733;39;20406;-61
2021/05/20 07:44:54;;;;;;;2.40;1.42;;;;;;;13.07;76.16;99003.88;3626524;39;20076;-60
2021/05/20 07:47:22;;;;;;;2.75;1.50;;;;;;;12.95;76.00;99005.09;3627249;39;20316;-59
2021/05/20 07:49:50;;;;;;;3.15;1.17;;;;;;;12.90;75.65;98999.50;3626597;39;20046;-62
2021/05/20 07:52:19;;;;;;;9.80;4.43;;;;;;;12.91;76.16;99001.13;3626836;39;20270;-59
2021/05/20 07:54:46;;;;;;;24.42;12.43;;;;;;;12.92;76.44;99005.44;3627094;39;20325;-59
2021/05/20 07:57:14;;;;;;;2.60;1.73;;;;;;;12.86;76.07;99003.41;3626909;39;20054;-60
2021/05/20 07:59:41;;;;;;;4.13;1.50;;;;;;;13.01;75.03;98997.44;3617996;39;20047;-60
2021/05/20 08:02:15;;;;;;;1.95;0.95;;;;;;;12.98;76.66;99003.00;3617842;39;20092;-60
2021/05/20 08:04:45;;;;;;;4.05;1.45;;;;;;;13.08;75.81;99002.88;3617781;39;20482;-61
2021/05/20 08:10:38;;;;;;;3.95;1.10;;;;;;;13.25;75.38;99009.06;3627026;39;20392;-62
2021/05/20 08:12:45;;;;;;;2.72;1.17;;;;;;;13.19;74.94;98999.97;3616734;39;20397;-60
2021/05/20 08:15:12;;;;;;;5.38;1.67;;;;;;;13.45;75.67;99002.56;3617323;39;20419;-62
2021/05/20 08:17:40;;;;;;;2.40;1.20;;;;;;;13.62;74.45;99005.22;3617826;39;20043;-61
2021/05/20 08:20:08;;;;;;;9.82;4.28;;;;;;;13.61;73.86;98998.34;3617467;39;20051;-61
2021/05/20 08:22:37;;;;;;;213.88;113.25;;;;;;;13.76;73.45;99013.31;3617403;39;20665;-59
2021/05/20 08:25:07;;;;;;;6.88;3.35;;;;;;;13.67;74.00;99016.91;3617765;39;20301;-59
2021/05/20 08:27:35;;;;;;;4.70;2.38;;;;;;;13.91;73.74;99033.69;3617677;39;20059;-61
2021/05/20 08:30:05;;;;;;;2.47;1.17;;;;;;;14.13;74.67;99017.31;3617388;39;20404;-64
2021/05/20 08:32:32;;;;;;;2.83;1.10;;;;;;;14.28;72.65;99022.72;3617615;39;20047;-60
2021/05/20 08:34:59;;;;;;;2.20;1.33;;;;;;;14.34;72.19;99017.66;3617470;39;20062;-62
2021/05/20 08:37:28;;;;;;;2.10;1.00;;;;;;;14.11;71.99;99029.81;3618885;39;20052;-62
2021/05/20 08:39:56;;;;;;;2.70;1.10;;;;;;;14.10;72.32;99041.31;3626392;39;20058;-59
2021/05/20 08:42:24;;;;;;;2.30;1.17;;;;;;;14.11;73.17;99034.25;3617458;39;20055;-59
2021/05/20 08:44:51;;;;;;;2.75;1.00;;;;;;;14.17;72.10;99031.78;3617746;39;20102;-60
2021/05/20 08:47:19;;;;;;;2.10;1.40;;;;;;;14.08;72.49;99033.56;3617566;39;20394;-60
2021/05/20 08:49:48;;;;;;;2.40;1.08;;;;;;;14.09;73.11;99029.94;3617395;39;20062;-60
2021/05/20 08:52:16;;;;;;;2.08;1.35;;;;;;;14.27;72.51;99028.97;3617386;39;20047;-60
2021/05/20 08:54:48;;;;;;;3.72;1.33;;;;;;;14.18;73.63;99017.63;3617000;39;20060;-59
2021/05/20 08:57:15;;;;;;;5.13;2.30;;;;;;;14.39;72.42;99022.41;3623627;39;20405;-61
2021/05/20 08:59:43;;;;;;;5.22;2.28;;;;;;;14.64;71.53;99032.94;3626389;39;20043;-60
2021/05/20 09:02:22;;;;;;;3.88;1.20;;;;;;;14.60;72.15;99042.97;3626782;39;20055;-61
2021/05/20 09:04:58;;;;;;;4.22;1.20;;;;;;;14.64;69.96;99043.47;3617493;39;20039;-61
2021/05/20 09:07:35;;;;;;;2.70;1.17;;;;;;;14.46;71.58;99048.88;3617458;39;20050;-61
2021/05/20 09:10:18;;;;;;;4.55;1.10;;;;;;;14.52;72.67;99064.03;3617250;39;20044;-60
2021/05/20 09:12:49;;;;;;;2.85;1.33;;;;;;;14.38;71.47;99065.47;3617267;39;20051;-62
2021/05/20 09:15:22;;;;;;;1.73;1.25;;;;;;;14.10;71.60;99070.22;3617025;39;20039;-60
2021/05/20 09:17:50;;;;;;;2.40;1.20;;;;;;;14.09;71.76;99077.28;3617223;39;20062;-61
2021/05/20 09:20:19;;;;;;;3.17;1.58;;;;;;;13.92;73.76;99075.63;3617093;39;20055;-60
2021/05/20 09:23:00;;;;;;;1.95;1.08;;;;;;;13.85;72.79;99077.22;3617040;39;20083;-59
2021/05/20 09:25:31;;;;;;;2.38;1.10;;;;;;;13.73;73.34;99083.78;3617057;39;20417;-62
2021/05/20 09:27:58;;;;;;;2.05;1.10;;;;;;;13.75;73.83;99090.50;3617049;39;20055;-61
2021/05/20 09:30:27;;;;;;;1.70;1.05;;;;;;;13.68;72.94;99096.56;3616891;39;20546;-61
2021/05/20 09:32:57;;;;;;;3.65;1.83;;;;;;;13.68;73.05;99105.28;3617175;39;20140;-58
2021/05/20 09:35:37;;;;;;;13.68;8.02;;;;;;;13.56;73.90;99104.72;3607506;39;20063;-62
2021/05/20 09:38:16;;;;;;;2.63;1.60;;;;;;;13.50;73.72;99110.59;3620478;39;20046;-61
2021/05/20 09:40:48;;;;;;;2.85;1.30;;;;;;;13.48;73.94;99104.69;3617059;39;20248;-67
2021/05/20 09:43:25;;;;;;;2.70;1.10;;;;;;;13.42;73.81;99112.34;3617254;39;20051;-62
2021/05/20 09:45:54;;;;;;;3.28;1.40;;;;;;;13.40;74.86;99115.16;3617100;39;20057;-60
2021/05/20 09:48:26;;;;;;;3.50;1.13;;;;;;;13.42;74.80;99115.81;3617564;39;20066;-61
2021/05/20 09:50:56;;;;;;;4.87;1.00;;;;;;;13.48;74.37;99123.09;3607446;39;20405;-62
2021/05/20 09:53:26;;;;;;;2.45;1.20;;;;;;;13.48;74.25;99120.47;3617163;39;20047;-61
2021/05/20 09:55:54;;;;;;;1.67;1.10;;;;;;;13.53;74.25;99117.31;3616832;39;20051;-61
2021/05/20 09:58:28;;;;;;;1.75;1.00;;;;;;;13.48;73.62;99114.34;3625528;39;20046;-61
2021/05/20 10:00:56;;;;;;;;;;;;;;;13.53;75.10;99126.06;3626570;39;21276;-60
2021/05/20 10:03:25;;;;;;;4.38;1.40;;;;;;;13.57;74.81;99114.22;3626290;39;19931;-60
2021/05/20 10:05:57;;;;;;;1.50;1.00;;;;;;;13.57;74.34;99121.28;3616888;39;20062;-60
2021/05/20 10:08:26;;;;;;;44.05;18.33;;;;;;;13.63;74.09;99120.69;3618475;39;20472;-62
2021/05/20 10:10:55;;;;;;;4.90;2.47;;;;;;;13.76;75.18;99120.22;3618813;39;20393;-59
2021/05/20 10:13:25;;;;;;;2.72;1.40;;;;;;;13.86;73.68;99120.09;3623089;39;20051;-60
2021/05/20 10:15:54;;;;;;;2.30;1.20;;;;;;;13.98;73.43;99126.72;3618858;39;20054;-59
2021/05/20 10:18:28;;;;;;;3.10;1.63;;;;;;;14.07;73.47;99115.25;3608987;39;20074;-59
2021/05/20 10:21:03;;;;;;;1.70;1.10;;;;;;;13.93;73.21;99129.00;3616175;39;20054;-60
2021/05/20 10:23:32;;;;;;;2.30;1.27;;;;;;;13.95;72.83;99127.84;3627395;39;20051;-64
2021/05/20 10:26:00;;;;;;;2.28;1.25;;;;;;;13.92;72.87;99130.81;3627242;39;20070;-61
2021/05/20 10:28:27;;;;;;;2.35;1.40;;;;;;;14.04;73.34;99132.16;3627354;39;20065;-61
2021/05/20 10:30:58;;;;;;;1.67;1.10;;;;;;;13.97;73.46;99125.91;3627454;39;20059;-58
2021/05/20 10:33:28;;;;;;;2.20;1.35;;;;;;;13.98;73.18;99138.06;3627515;39;20322;-62
2021/05/20 10:35:58;;;;;;;2.17;1.20;;;;;;;14.08;72.83;99130.03;3618474;39;20429;-60
2021/05/20 10:38:31;;;;;;;2.30;1.10;;;;;;;14.05;73.24;99127.72;3623236;39;20069;-58
2021/05/20 10:41:26;;;;;;;2.10;1.23;;;;;;;13.81;72.56;99137.19;3627218;39;20456;-59
2021/05/20 10:44:04;;;;;;;2.17;1.25;;;;;;;13.80;72.44;99135.53;3623352;39;20409;-59
2021/05/20 10:46:31;;;;;;;1.33;1.02;;;;;;;13.76;72.93;99136.00;3617704;39;20038;-60
2021/05/20 10:49:02;;;;;;;1.55;1.20;;;;;;;13.87;73.42;99137.53;3627147;39;20400;-61
2021/05/20 10:51:35;;;;;;;6.95;1.33;;;;;;;13.77;73.37;99151.63;3618178;39;20436;-59
2021/05/20 10:54:02;;;;;;;1.70;1.25;;;;;;;13.66;74.49;99148.44;3607112;39;20039;-61
2021/05/20 10:56:33;;;;;;;2.13;1.08;;;;;;;13.68;74.15;99159.63;3607648;39;20375;-64
2021/05/20 10:59:01;;;;;;;28.48;15.48;;;;;;;13.50;74.15;99147.38;3608193;39;20050;-63
2021/05/20 11:01:37;;;;;;;7.20;3.55;;;;;;;13.57;74.08;99150.19;3608072;39;20298;-65
2021/05/20 11:04:05;;;;;;;2.97;1.75;;;;;;;13.61;74.04;99151.53;3607838;39;20449;-62
2021/05/20 11:06:35;;;;;;;3.13;1.85;;;;;;;13.57;73.83;99155.44;3607868;39;20060;-61
2021/05/20 11:09:09;;;;;;;1.88;1.35;;;;;;;13.35;74.86;99159.44;3607966;39;20340;-65
2021/05/20 11:11:39;;;;;;;1.98;1.27;;;;;;;13.44;74.56;99162.94;3608043;39;20148;-62
2021/05/20 11:14:26;;;;;;;3.58;1.48;;;;;;;13.43;74.70;99164.72;3607976;39;20055;-64
2021/05/20 11:16:54;;;;;;;2.00;1.35;;;;;;;13.39;74.85;99168.66;3615476;39;20051;-61
2021/05/20 11:19:23;;;;;;;1.90;1.30;;;;;;;13.38;74.35;99181.94;3617366;39;20128;-63
2021/05/20 11:22:02;;;;;;;2.22;1.40;;;;;;;13.39;75.14;99175.69;3617149;39;20081;-62
2021/05/20 11:24:31;;;;;;;1.55;1.17;;;;;;;13.37;74.85;99175.84;3607986;39;20052;-61
2021/05/20 11:27:03;;;;;;;3.63;1.90;;;;;;;13.39;74.67;99178.31;3607698;39;20051;-62
2021/05/20 11:29:35;;;;;;;2.45;1.55;;;;;;;13.51;74.86;99182.34;3607667;39;20413;-61
2021/05/20 11:32:24;;;;;;;2.00;1.40;;;;;;;13.46;75.57;99182.00;3607665;39;20048;-61
2021/05/20 11:37:30;;;;;;;8.15;2.42;;;;;;;13.45;75.46;99183.78;3608630;39;20054;-65
2021/05/20 11:39:58;;;;;;;1.73;1.27;;;;;;;13.44;74.20;99186.59;3607659;39;20294;-69
2021/05/20 11:42:28;;;;;;;2.33;1.35;;;;;;;13.44;75.20;99178.72;3607581;39;20055;-65
2021/05/20 11:44:59;;;;;;;2.95;1.20;;;;;;;13.44;74.98;99184.78;3616320;39;20054;-62
2021/05/20 11:47:27;;;;;;;3.60;1.17;;;;;;;13.47;74.14;99189.72;3616666;39;20051;-61